sensor_id;sensor_type;location;lat;lon;timestamp;temperature;humidity
52211;DHT22;38179;52.756;6.906;2022-08-03T00:01:58;19.30;99.90
52211;DHT22;38179;52.756;6.906;2022-08-03T00:04:24;19.30;99.90
52211;DHT22;38179;52.756;6.906;2022-08-03T00:06:50;19.30;99.90
52211;DHT22;38179;52.756;6.906;2022-08-03T00:09:16;19.30;99.90
52211;DHT22;38179;52.756;6.906;2022-08-03T00:11:42;19.50;99.90
52211;DHT22;38179;52.756;6.906;2022-08-03T00:14:08;19.50;99.90
52211;DHT22;38179;52.756;6.906;2022-08-03T00:16:34;19.60;99.90
52211;DHT22;38179;52.756;6.906;2022-08-03T00:19:00;19.60;99.90
52211;DHT22;38179;52.756;6.906;2022-08-03T00:21:27;19.60;99.90
52211;DHT22;38179;52.756;6.906;2022-08-03T00:23:53;19.60;99.90
52211;DHT22;38179;52.756;6.906;2022-08-03T00:26:20;19.50;99.90
52211;DHT22;38179;52.756;6.906;2022-08-03T00:28:47;19.40;99.90
52211;DHT22;38179;52.756;6.906;2022-08-03T00:31:12;19.40;99.90
52211;DHT22;38179;52.756;6.906;2022-08-03T00:33:38;19.20;99.90
52211;DHT22;38179;52.756;6.906;2022-08-03T00:36:04;19.20;99.90
52211;DHT22;38179;52.756;6.906;2022-08-03T00:38:30;19.10;99.90
52211;DHT22;38179;52.756;6.906;2022-08-03T00:40:56;19.10;99.90
52211;DHT22;38179;52.756;6.906;2022-08-03T00:43:24;19.00;99.90
52211;DHT22;38179;52.756;6.906;2022-08-03T00:45:52;19.00;99.90
52211;DHT22;38179;52.756;6.906;2022-08-03T00:48:19;19.00;99.90
52211;DHT22;38179;52.756;6.906;2022-08-03T00:50:46;19.00;99.90
52211;DHT22;38179;52.756;6.906;2022-08-03T00:53:13;18.90;99.90
52211;DHT22;38179;52.756;6.906;2022-08-03T00:55:40;18.90;99.90
52211;DHT22;38179;52.756;6.906;2022-08-03T00:58:07;18.90;99.90
52211;DHT22;38179;52.756;6.906;2022-08-03T01:00:38;18.80;99.90
52211;DHT22;38179;52.756;6.906;2022-08-03T01:03:07;18.90;99.90
52211;DHT22;38179;52.756;6.906;2022-08-03T01:05:51;18.90;99.90
52211;DHT22;38179;52.756;6.906;2022-08-03T01:08:27;18.60;99.90
52211;DHT22;38179;52.756;6.906;2022-08-03T01:11:39;18.90;99.90
52211;DHT22;38179;52.756;6.906;2022-08-03T01:14:13;19.00;99.90
52211;DHT22;38179;52.756;6.906;2022-08-03T01:16:43;19.10;99.90
52211;DHT22;38179;52.756;6.906;2022-08-03T01:23:02;19.20;99.90
52211;DHT22;38179;52.756;6.906;2022-08-03T01:26:02;19.20;99.90
52211;DHT22;38179;52.756;6.906;2022-08-03T01:31:19;19.30;99.90
52211;DHT22;38179;52.756;6.906;2022-08-03T01:33:51;19.30;99.90
52211;DHT22;38179;52.756;6.906;2022-08-03T01:36:23;19.30;99.90
52211;DHT22;38179;52.756;6.906;2022-08-03T01:38:53;19.20;99.90
52211;DHT22;38179;52.756;6.906;2022-08-03T01:41:31;19.30;99.90
52211;DHT22;38179;52.756;6.906;2022-08-03T01:43:59;19.20;99.90
52211;DHT22;38179;52.756;6.906;2022-08-03T01:46:26;19.20;99.90
52211;DHT22;38179;52.756;6.906;2022-08-03T01:48:54;19.20;99.90
52211;DHT22;38179;52.756;6.906;2022-08-03T01:51:21;19.20;99.90
52211;DHT22;38179;52.756;6.906;2022-08-03T01:53:48;19.20;99.90
52211;DHT22;38179;52.756;6.906;2022-08-03T01:56:17;19.20;99.90
52211;DHT22;38179;52.756;6.906;2022-08-03T01:58:45;19.20;99.90
52211;DHT22;38179;52.756;6.906;2022-08-03T02:01:14;19.10;99.90
52211;DHT22;38179;52.756;6.906;2022-08-03T02:03:42;19.10;99.90
52211;DHT22;38179;52.756;6.906;2022-08-03T02:06:11;19.10;99.90
52211;DHT22;38179;52.756;6.906;2022-08-03T02:08:42;19.10;99.90
52211;DHT22;38179;52.756;6.906;2022-08-03T02:11:10;19.00;99.90
52211;DHT22;38179;52.756;6.906;2022-08-03T02:13:37;19.00;99.90
52211;DHT22;38179;52.756;6.906;2022-08-03T02:16:04;19.00;99.90
52211;DHT22;38179;52.756;6.906;2022-08-03T02:18:31;19.00;99.90
52211;DHT22;38179;52.756;6.906;2022-08-03T02:21:00;19.00;99.90
52211;DHT22;38179;52.756;6.906;2022-08-03T02:23:27;19.00;99.90
52211;DHT22;38179;52.756;6.906;2022-08-03T02:25:57;18.90;99.90
52211;DHT22;38179;52.756;6.906;2022-08-03T02:28:29;18.90;99.90
52211;DHT22;38179;52.756;6.906;2022-08-03T02:30:57;18.90;99.90
52211;DHT22;38179;52.756;6.906;2022-08-03T02:33:31;18.80;99.90
52211;DHT22;38179;52.756;6.906;2022-08-03T02:36:00;18.80;99.90
52211;DHT22;38179;52.756;6.906;2022-08-03T02:38:40;18.80;99.90
52211;DHT22;38179;52.756;6.906;2022-08-03T02:41:12;18.70;99.90
52211;DHT22;38179;52.756;6.906;2022-08-03T02:43:40;18.70;99.90
52211;DHT22;38179;52.756;6.906;2022-08-03T02:46:08;18.70;99.90
52211;DHT22;38179;52.756;6.906;2022-08-03T02:48:36;18.60;99.90
52211;DHT22;38179;52.756;6.906;2022-08-03T02:51:03;18.60;99.90
52211;DHT22;38179;52.756;6.906;2022-08-03T02:53:30;18.60;99.90
52211;DHT22;38179;52.756;6.906;2022-08-03T02:55:59;18.60;99.90
52211;DHT22;38179;52.756;6.906;2022-08-03T02:58:26;18.50;99.90
52211;DHT22;38179;52.756;6.906;2022-08-03T03:00:54;18.50;99.90
52211;DHT22;38179;52.756;6.906;2022-08-03T03:03:21;18.50;99.90
52211;DHT22;38179;52.756;6.906;2022-08-03T03:05:48;18.40;99.90
52211;DHT22;38179;52.756;6.906;2022-08-03T03:08:17;18.50;99.90
52211;DHT22;38179;52.756;6.906;2022-08-03T03:10:44;18.40;99.90
52211;DHT22;38179;52.756;6.906;2022-08-03T03:13:13;18.40;99.90
52211;DHT22;38179;52.756;6.906;2022-08-03T03:15:40;18.40;99.90
52211;DHT22;38179;52.756;6.906;2022-08-03T03:18:06;18.40;99.90
52211;DHT22;38179;52.756;6.906;2022-08-03T03:20:36;18.40;99.90
52211;DHT22;38179;52.756;6.906;2022-08-03T03:23:04;18.40;99.90
52211;DHT22;38179;52.756;6.906;2022-08-03T03:25:31;18.40;99.90
52211;DHT22;38179;52.756;6.906;2022-08-03T03:27:58;18.40;99.90
52211;DHT22;38179;52.756;6.906;2022-08-03T03:30:24;18.40;99.90
52211;DHT22;38179;52.756;6.906;2022-08-03T03:32:50;18.40;99.90
52211;DHT22;38179;52.756;6.906;2022-08-03T03:35:17;18.50;99.90
52211;DHT22;38179;52.756;6.906;2022-08-03T03:37:43;18.50;99.90
52211;DHT22;38179;52.756;6.906;2022-08-03T03:40:09;18.40;99.90
52211;DHT22;38179;52.756;6.906;2022-08-03T03:42:35;18.50;99.90
52211;DHT22;38179;52.756;6.906;2022-08-03T03:45:06;18.50;99.90
52211;DHT22;38179;52.756;6.906;2022-08-03T03:47:35;18.50;99.90
52211;DHT22;38179;52.756;6.906;2022-08-03T03:50:05;18.40;99.90
52211;DHT22;38179;52.756;6.906;2022-08-03T03:52:32;18.40;99.90
52211;DHT22;38179;52.756;6.906;2022-08-03T03:54:58;18.40;99.90
52211;DHT22;38179;52.756;6.906;2022-08-03T03:57:24;18.40;99.90
52211;DHT22;38179;52.756;6.906;2022-08-03T03:59:50;18.40;99.90
52211;DHT22;38179;52.756;6.906;2022-08-03T04:02:16;18.40;99.90
52211;DHT22;38179;52.756;6.906;2022-08-03T04:04:42;18.30;99.90
52211;DHT22;38179;52.756;6.906;2022-08-03T04:07:26;18.40;99.90
52211;DHT22;38179;52.756;6.906;2022-08-03T04:10:22;18.30;99.90
52211;DHT22;38179;52.756;6.906;2022-08-03T04:13:09;18.30;99.90
52211;DHT22;38179;52.756;6.906;2022-08-03T04:15:40;18.30;99.90
52211;DHT22;38179;52.756;6.906;2022-08-03T04:18:10;18.30;99.90
52211;DHT22;38179;52.756;6.906;2022-08-03T04:20:38;18.30;99.90
52211;DHT22;38179;52.756;6.906;2022-08-03T04:23:06;18.20;99.90
52211;DHT22;38179;52.756;6.906;2022-08-03T04:25:34;18.30;99.90
52211;DHT22;38179;52.756;6.906;2022-08-03T04:28:03;18.30;99.90
52211;DHT22;38179;52.756;6.906;2022-08-03T04:30:30;18.20;99.90
52211;DHT22;38179;52.756;6.906;2022-08-03T04:32:58;18.30;99.90
52211;DHT22;38179;52.756;6.906;2022-08-03T04:35:28;18.20;99.90
52211;DHT22;38179;52.756;6.906;2022-08-03T04:38:00;18.30;99.90
52211;DHT22;38179;52.756;6.906;2022-08-03T04:40:32;18.20;99.90
52211;DHT22;38179;52.756;6.906;2022-08-03T04:42:58;18.20;99.90
52211;DHT22;38179;52.756;6.906;2022-08-03T04:45:26;18.20;99.90
52211;DHT22;38179;52.756;6.906;2022-08-03T04:47:53;18.20;99.90
52211;DHT22;38179;52.756;6.906;2022-08-03T04:50:20;18.30;99.90
52211;DHT22;38179;52.756;6.906;2022-08-03T04:52:47;18.30;99.90
52211;DHT22;38179;52.756;6.906;2022-08-03T04:55:30;18.30;99.90
52211;DHT22;38179;52.756;6.906;2022-08-03T04:57:59;18.30;99.90
52211;DHT22;38179;52.756;6.906;2022-08-03T05:00:26;18.30;99.90
52211;DHT22;38179;52.756;6.906;2022-08-03T05:02:52;18.40;99.90
52211;DHT22;38179;52.756;6.906;2022-08-03T05:05:19;18.40;99.90
52211;DHT22;38179;52.756;6.906;2022-08-03T05:07:45;18.40;99.90
52211;DHT22;38179;52.756;6.906;2022-08-03T05:10:11;18.40;99.90
52211;DHT22;38179;52.756;6.906;2022-08-03T05:12:38;18.50;99.90
52211;DHT22;38179;52.756;6.906;2022-08-03T05:15:04;18.50;99.90
52211;DHT22;38179;52.756;6.906;2022-08-03T05:17:30;18.50;99.90
52211;DHT22;38179;52.756;6.906;2022-08-03T05:19:59;18.60;99.90
52211;DHT22;38179;52.756;6.906;2022-08-03T05:22:25;18.60;99.90
52211;DHT22;38179;52.756;6.906;2022-08-03T05:24:51;18.60;99.90
52211;DHT22;38179;52.756;6.906;2022-08-03T05:27:17;18.70;99.90
52211;DHT22;38179;52.756;6.906;2022-08-03T05:29:44;18.80;99.90
52211;DHT22;38179;52.756;6.906;2022-08-03T05:32:10;18.80;99.90
52211;DHT22;38179;52.756;6.906;2022-08-03T05:34:36;18.90;99.90
52211;DHT22;38179;52.756;6.906;2022-08-03T05:37:02;18.90;99.90
52211;DHT22;38179;52.756;6.906;2022-08-03T05:39:33;19.00;99.90
52211;DHT22;38179;52.756;6.906;2022-08-03T05:41:59;19.10;99.90
52211;DHT22;38179;52.756;6.906;2022-08-03T05:44:25;19.20;99.90
52211;DHT22;38179;52.756;6.906;2022-08-03T05:46:51;19.20;99.90
52211;DHT22;38179;52.756;6.906;2022-08-03T05:49:18;19.20;99.90
52211;DHT22;38179;52.756;6.906;2022-08-03T05:51:45;19.30;99.90
52211;DHT22;38179;52.756;6.906;2022-08-03T05:54:11;19.40;99.90
52211;DHT22;38179;52.756;6.906;2022-08-03T05:56:37;19.50;99.90
52211;DHT22;38179;52.756;6.906;2022-08-03T05:59:05;19.50;99.90
52211;DHT22;38179;52.756;6.906;2022-08-03T06:01:31;19.50;99.90
52211;DHT22;38179;52.756;6.906;2022-08-03T06:03:58;19.50;99.90
52211;DHT22;38179;52.756;6.906;2022-08-03T06:06:24;19.50;99.90
52211;DHT22;38179;52.756;6.906;2022-08-03T06:08:50;19.60;99.90
52211;DHT22;38179;52.756;6.906;2022-08-03T06:11:16;19.70;99.90
52211;DHT22;38179;52.756;6.906;2022-08-03T06:13:42;19.70;99.90
52211;DHT22;38179;52.756;6.906;2022-08-03T06:16:08;19.80;99.90
52211;DHT22;38179;52.756;6.906;2022-08-03T06:18:34;19.80;99.90
52211;DHT22;38179;52.756;6.906;2022-08-03T06:21:00;19.90;99.90
52211;DHT22;38179;52.756;6.906;2022-08-03T06:23:26;19.90;99.90
52211;DHT22;38179;52.756;6.906;2022-08-03T06:25:54;20.00;99.90
52211;DHT22;38179;52.756;6.906;2022-08-03T06:28:20;20.00;99.90
52211;DHT22;38179;52.756;6.906;2022-08-03T06:30:46;20.00;99.90
52211;DHT22;38179;52.756;6.906;2022-08-03T06:33:12;20.00;99.90
52211;DHT22;38179;52.756;6.906;2022-08-03T06:35:38;20.10;99.90
52211;DHT22;38179;52.756;6.906;2022-08-03T06:38:04;20.10;99.90
52211;DHT22;38179;52.756;6.906;2022-08-03T06:40:30;20.10;99.90
52211;DHT22;38179;52.756;6.906;2022-08-03T06:42:57;20.10;99.90
52211;DHT22;38179;52.756;6.906;2022-08-03T06:45:24;20.20;99.90
52211;DHT22;38179;52.756;6.906;2022-08-03T06:48:19;20.30;99.90
52211;DHT22;38179;52.756;6.906;2022-08-03T06:50:45;20.40;99.90
52211;DHT22;38179;52.756;6.906;2022-08-03T06:53:11;20.40;99.90
52211;DHT22;38179;52.756;6.906;2022-08-03T06:55:37;20.50;99.90
52211;DHT22;38179;52.756;6.906;2022-08-03T06:58:03;20.50;99.90
52211;DHT22;38179;52.756;6.906;2022-08-03T07:00:29;20.50;99.90
52211;DHT22;38179;52.756;6.906;2022-08-03T07:02:55;20.60;99.90
52211;DHT22;38179;52.756;6.906;2022-08-03T07:05:21;20.60;99.90
52211;DHT22;38179;52.756;6.906;2022-08-03T07:07:47;20.70;99.90
52211;DHT22;38179;52.756;6.906;2022-08-03T07:10:14;20.70;99.90
52211;DHT22;38179;52.756;6.906;2022-08-03T07:12:39;20.80;99.90
52211;DHT22;38179;52.756;6.906;2022-08-03T07:15:07;20.80;99.90
52211;DHT22;38179;52.756;6.906;2022-08-03T07:17:34;20.90;99.90
52211;DHT22;38179;52.756;6.906;2022-08-03T07:20:01;20.90;99.90
52211;DHT22;38179;52.756;6.906;2022-08-03T07:22:28;21.00;99.90
52211;DHT22;38179;52.756;6.906;2022-08-03T07:24:55;21.00;99.90
52211;DHT22;38179;52.756;6.906;2022-08-03T07:27:21;21.10;99.90
52211;DHT22;38179;52.756;6.906;2022-08-03T07:29:47;21.10;99.90
52211;DHT22;38179;52.756;6.906;2022-08-03T07:32:13;21.20;99.90
52211;DHT22;38179;52.756;6.906;2022-08-03T07:34:39;21.10;99.90
52211;DHT22;38179;52.756;6.906;2022-08-03T07:37:05;21.10;99.90
52211;DHT22;38179;52.756;6.906;2022-08-03T07:39:31;21.10;99.90
52211;DHT22;38179;52.756;6.906;2022-08-03T07:41:56;21.10;99.90
52211;DHT22;38179;52.756;6.906;2022-08-03T07:44:22;21.20;99.90
52211;DHT22;38179;52.756;6.906;2022-08-03T07:46:48;21.20;99.90
52211;DHT22;38179;52.756;6.906;2022-08-03T07:49:15;21.30;99.90
52211;DHT22;38179;52.756;6.906;2022-08-03T07:51:41;21.30;99.90
52211;DHT22;38179;52.756;6.906;2022-08-03T07:54:07;21.30;99.90
52211;DHT22;38179;52.756;6.906;2022-08-03T07:56:35;21.40;99.90
52211;DHT22;38179;52.756;6.906;2022-08-03T07:59:02;21.40;99.90
52211;DHT22;38179;52.756;6.906;2022-08-03T08:01:28;21.50;99.90
52211;DHT22;38179;52.756;6.906;2022-08-03T08:03:54;21.60;99.90
52211;DHT22;38179;52.756;6.906;2022-08-03T08:06:21;21.60;99.90
52211;DHT22;38179;52.756;6.906;2022-08-03T08:08:47;21.60;99.90
52211;DHT22;38179;52.756;6.906;2022-08-03T08:11:13;21.70;99.90
52211;DHT22;38179;52.756;6.906;2022-08-03T08:13:39;21.80;99.90
52211;DHT22;38179;52.756;6.906;2022-08-03T08:16:05;21.80;99.90
52211;DHT22;38179;52.756;6.906;2022-08-03T08:18:31;21.90;99.90
52211;DHT22;38179;52.756;6.906;2022-08-03T08:20:57;22.00;99.90
52211;DHT22;38179;52.756;6.906;2022-08-03T08:23:23;22.00;99.90
52211;DHT22;38179;52.756;6.906;2022-08-03T08:25:50;22.10;99.90
52211;DHT22;38179;52.756;6.906;2022-08-03T08:28:17;22.10;99.90
52211;DHT22;38179;52.756;6.906;2022-08-03T08:30:44;22.10;99.90
52211;DHT22;38179;52.756;6.906;2022-08-03T08:33:10;22.20;99.90
52211;DHT22;38179;52.756;6.906;2022-08-03T08:35:36;22.30;99.90
52211;DHT22;38179;52.756;6.906;2022-08-03T08:38:01;22.30;99.90
52211;DHT22;38179;52.756;6.906;2022-08-03T08:40:28;22.30;99.90
52211;DHT22;38179;52.756;6.906;2022-08-03T08:42:54;22.40;99.90
52211;DHT22;38179;52.756;6.906;2022-08-03T08:45:20;22.40;99.90
52211;DHT22;38179;52.756;6.906;2022-08-03T08:47:47;22.50;99.90
52211;DHT22;38179;52.756;6.906;2022-08-03T08:50:19;22.50;99.90
52211;DHT22;38179;52.756;6.906;2022-08-03T08:52:47;22.60;99.90
52211;DHT22;38179;52.756;6.906;2022-08-03T08:55:20;22.70;99.90
52211;DHT22;38179;52.756;6.906;2022-08-03T08:57:49;22.70;99.90
52211;DHT22;38179;52.756;6.906;2022-08-03T09:00:15;22.70;99.90
52211;DHT22;38179;52.756;6.906;2022-08-03T09:02:43;22.80;99.90
52211;DHT22;38179;52.756;6.906;2022-08-03T09:05:10;22.80;99.90
52211;DHT22;38179;52.756;6.906;2022-08-03T09:07:41;22.80;99.90
52211;DHT22;38179;52.756;6.906;2022-08-03T09:10:08;22.90;99.90
52211;DHT22;38179;52.756;6.906;2022-08-03T09:12:49;22.90;99.90
52211;DHT22;38179;52.756;6.906;2022-08-03T09:17:42;23.10;99.90
52211;DHT22;38179;52.756;6.906;2022-08-03T09:20:08;23.20;99.90
52211;DHT22;38179;52.756;6.906;2022-08-03T09:22:34;23.30;99.90
52211;DHT22;38179;52.756;6.906;2022-08-03T09:25:04;23.30;99.90
52211;DHT22;38179;52.756;6.906;2022-08-03T09:27:44;23.40;99.90
52211;DHT22;38179;52.756;6.906;2022-08-03T09:30:16;23.50;99.90
52211;DHT22;38179;52.756;6.906;2022-08-03T09:32:42;23.50;99.90
52211;DHT22;38179;52.756;6.906;2022-08-03T09:35:12;23.50;99.90
52211;DHT22;38179;52.756;6.906;2022-08-03T09:37:39;23.50;99.90
52211;DHT22;38179;52.756;6.906;2022-08-03T09:40:06;23.60;99.90
52211;DHT22;38179;52.756;6.906;2022-08-03T09:42:32;23.70;99.90
52211;DHT22;38179;52.756;6.906;2022-08-03T09:45:04;23.70;99.90
52211;DHT22;38179;52.756;6.906;2022-08-03T09:47:32;23.80;99.90
52211;DHT22;38179;52.756;6.906;2022-08-03T09:50:03;23.90;99.90
52211;DHT22;38179;52.756;6.906;2022-08-03T09:52:38;23.90;99.90
52211;DHT22;38179;52.756;6.906;2022-08-03T09:55:10;24.10;99.90
52211;DHT22;38179;52.756;6.906;2022-08-03T09:57:36;24.10;99.90
52211;DHT22;38179;52.756;6.906;2022-08-03T10:00:13;24.20;99.90
52211;DHT22;38179;52.756;6.906;2022-08-03T10:02:40;24.20;99.90
52211;DHT22;38179;52.756;6.906;2022-08-03T10:05:08;24.30;99.90
52211;DHT22;38179;52.756;6.906;2022-08-03T10:07:48;24.40;99.90
52211;DHT22;38179;52.756;6.906;2022-08-03T10:10:15;24.50;99.90
52211;DHT22;38179;52.756;6.906;2022-08-03T10:12:43;24.60;99.90
52211;DHT22;38179;52.756;6.906;2022-08-03T10:15:09;24.60;99.90
52211;DHT22;38179;52.756;6.906;2022-08-03T10:17:36;24.70;99.90
52211;DHT22;38179;52.756;6.906;2022-08-03T10:20:04;24.60;99.90
52211;DHT22;38179;52.756;6.906;2022-08-03T10:22:35;24.60;99.90
52211;DHT22;38179;52.756;6.906;2022-08-03T10:25:14;24.70;99.90
52211;DHT22;38179;52.756;6.906;2022-08-03T10:27:42;24.80;99.90
52211;DHT22;38179;52.756;6.906;2022-08-03T10:30:10;24.90;99.90
52211;DHT22;38179;52.756;6.906;2022-08-03T10:35:16;25.00;99.90
52211;DHT22;38179;52.756;6.906;2022-08-03T10:37:58;25.10;99.90
52211;DHT22;38179;52.756;6.906;2022-08-03T10:40:26;25.20;99.90
52211;DHT22;38179;52.756;6.906;2022-08-03T10:42:53;25.30;99.90
52211;DHT22;38179;52.756;6.906;2022-08-03T10:45:24;25.30;99.90
52211;DHT22;38179;52.756;6.906;2022-08-03T10:47:51;25.40;99.90
52211;DHT22;38179;52.756;6.906;2022-08-03T10:50:18;25.50;99.90
52211;DHT22;38179;52.756;6.906;2022-08-03T10:53:01;25.50;99.90
52211;DHT22;38179;52.756;6.906;2022-08-03T10:55:43;25.70;99.90
52211;DHT22;38179;52.756;6.906;2022-08-03T11:01:09;25.90;99.90
52211;DHT22;38179;52.756;6.906;2022-08-03T11:06:21;26.00;99.90
52211;DHT22;38179;52.756;6.906;2022-08-03T11:08:48;26.00;99.90
52211;DHT22;38179;52.756;6.906;2022-08-03T11:13:59;25.90;99.90
52211;DHT22;38179;52.756;6.906;2022-08-03T11:16:28;25.90;99.90
52211;DHT22;38179;52.756;6.906;2022-08-03T11:18:56;26.10;99.90
52211;DHT22;38179;52.756;6.906;2022-08-03T11:27:17;26.20;99.90
52211;DHT22;38179;52.756;6.906;2022-08-03T11:37:32;26.60;99.90
52211;DHT22;38179;52.756;6.906;2022-08-03T11:39:58;26.60;99.90
52211;DHT22;38179;52.756;6.906;2022-08-03T11:44:58;26.60;99.90
52211;DHT22;38179;52.756;6.906;2022-08-03T11:47:26;26.60;99.90
52211;DHT22;38179;52.756;6.906;2022-08-03T11:49:58;26.70;99.90
52211;DHT22;38179;52.756;6.906;2022-08-03T11:52:26;26.70;99.90
52211;DHT22;38179;52.756;6.906;2022-08-03T11:54:58;26.70;99.90
52211;DHT22;38179;52.756;6.906;2022-08-03T11:57:32;26.70;99.90
52211;DHT22;38179;52.756;6.906;2022-08-03T11:59:58;26.70;99.90
52211;DHT22;38179;52.756;6.906;2022-08-03T12:02:24;26.70;99.90
52211;DHT22;38179;52.756;6.906;2022-08-03T12:04:57;26.70;99.90
52211;DHT22;38179;52.756;6.906;2022-08-03T12:07:25;26.80;99.90
52211;DHT22;38179;52.756;6.906;2022-08-03T12:10:07;26.90;99.90
52211;DHT22;38179;52.756;6.906;2022-08-03T12:12:33;27.10;99.90
52211;DHT22;38179;52.756;6.906;2022-08-03T12:14:59;27.10;99.90
52211;DHT22;38179;52.756;6.906;2022-08-03T12:17:35;27.20;99.90
52211;DHT22;38179;52.756;6.906;2022-08-03T12:20:04;27.30;99.90
52211;DHT22;38179;52.756;6.906;2022-08-03T12:22:31;27.30;99.90
52211;DHT22;38179;52.756;6.906;2022-08-03T12:24:57;27.30;99.90
52211;DHT22;38179;52.756;6.906;2022-08-03T12:27:24;27.30;99.90
52211;DHT22;38179;52.756;6.906;2022-08-03T12:29:55;27.40;99.90
52211;DHT22;38179;52.756;6.906;2022-08-03T12:32:21;27.50;99.90
52211;DHT22;38179;52.756;6.906;2022-08-03T12:34:47;27.50;99.90
52211;DHT22;38179;52.756;6.906;2022-08-03T12:37:17;27.40;99.90
52211;DHT22;38179;52.756;6.906;2022-08-03T12:39:51;27.50;99.90
52211;DHT22;38179;52.756;6.906;2022-08-03T12:42:18;27.60;99.90
52211;DHT22;38179;52.756;6.906;2022-08-03T12:44:44;27.60;99.90
52211;DHT22;38179;52.756;6.906;2022-08-03T12:47:15;27.70;99.90
52211;DHT22;38179;52.756;6.906;2022-08-03T12:49:48;27.70;99.90
52211;DHT22;38179;52.756;6.906;2022-08-03T12:52:16;27.70;99.90
52211;DHT22;38179;52.756;6.906;2022-08-03T12:54:42;27.90;99.90
52211;DHT22;38179;52.756;6.906;2022-08-03T12:57:18;27.90;99.90
52211;DHT22;38179;52.756;6.906;2022-08-03T12:59:44;28.00;99.90
52211;DHT22;38179;52.756;6.906;2022-08-03T13:04:47;28.00;99.90
52211;DHT22;38179;52.756;6.906;2022-08-03T13:07:14;28.00;99.90
52211;DHT22;38179;52.756;6.906;2022-08-03T13:09:52;28.00;99.90
52211;DHT22;38179;52.756;6.906;2022-08-03T13:12:22;28.10;99.90
52211;DHT22;38179;52.756;6.906;2022-08-03T13:14:51;28.20;99.90
52211;DHT22;38179;52.756;6.906;2022-08-03T13:17:17;28.20;99.90
52211;DHT22;38179;52.756;6.906;2022-08-03T13:19:47;28.30;99.90
52211;DHT22;38179;52.756;6.906;2022-08-03T13:22:21;28.30;99.90
52211;DHT22;38179;52.756;6.906;2022-08-03T13:24:49;28.30;99.90
52211;DHT22;38179;52.756;6.906;2022-08-03T13:27:16;28.40;99.90
52211;DHT22;38179;52.756;6.906;2022-08-03T13:29:42;28.40;99.90
52211;DHT22;38179;52.756;6.906;2022-08-03T13:32:09;28.40;99.90
52211;DHT22;38179;52.756;6.906;2022-08-03T13:34:35;28.50;99.90
52211;DHT22;38179;52.756;6.906;2022-08-03T13:37:01;28.50;99.90
52211;DHT22;38179;52.756;6.906;2022-08-03T13:39:27;28.50;99.90
52211;DHT22;38179;52.756;6.906;2022-08-03T13:41:53;28.40;99.90
52211;DHT22;38179;52.756;6.906;2022-08-03T13:44:19;28.40;99.90
52211;DHT22;38179;52.756;6.906;2022-08-03T13:46:46;28.40;99.90
52211;DHT22;38179;52.756;6.906;2022-08-03T13:49:12;28.40;99.90
52211;DHT22;38179;52.756;6.906;2022-08-03T13:51:38;28.50;99.90
52211;DHT22;38179;52.756;6.906;2022-08-03T13:54:04;28.60;99.90
52211;DHT22;38179;52.756;6.906;2022-08-03T13:56:30;28.70;99.90
52211;DHT22;38179;52.756;6.906;2022-08-03T13:58:56;28.80;99.90
52211;DHT22;38179;52.756;6.906;2022-08-03T14:01:23;28.90;99.90
52211;DHT22;38179;52.756;6.906;2022-08-03T14:03:49;29.00;99.90
52211;DHT22;38179;52.756;6.906;2022-08-03T14:06:23;29.10;99.90
52211;DHT22;38179;52.756;6.906;2022-08-03T14:08:50;29.10;99.90
52211;DHT22;38179;52.756;6.906;2022-08-03T14:11:17;29.20;99.90
52211;DHT22;38179;52.756;6.906;2022-08-03T14:13:43;29.10;99.90
52211;DHT22;38179;52.756;6.906;2022-08-03T14:16:09;29.20;99.90
52211;DHT22;38179;52.756;6.906;2022-08-03T14:18:35;29.30;99.90
52211;DHT22;38179;52.756;6.906;2022-08-03T14:21:03;29.20;99.90
52211;DHT22;38179;52.756;6.906;2022-08-03T14:23:29;29.20;99.90
52211;DHT22;38179;52.756;6.906;2022-08-03T14:25:58;29.20;99.90
52211;DHT22;38179;52.756;6.906;2022-08-03T14:28:24;29.10;99.90
52211;DHT22;38179;52.756;6.906;2022-08-03T14:30:51;29.10;99.90
52211;DHT22;38179;52.756;6.906;2022-08-03T14:33:17;29.00;99.90
52211;DHT22;38179;52.756;6.906;2022-08-03T14:35:43;29.00;99.90
52211;DHT22;38179;52.756;6.906;2022-08-03T14:38:09;29.00;99.90
52211;DHT22;38179;52.756;6.906;2022-08-03T14:40:34;29.00;99.90
52211;DHT22;38179;52.756;6.906;2022-08-03T14:43:00;29.10;99.90
52211;DHT22;38179;52.756;6.906;2022-08-03T14:45:27;29.20;99.90
52211;DHT22;38179;52.756;6.906;2022-08-03T14:47:53;29.30;99.90
52211;DHT22;38179;52.756;6.906;2022-08-03T14:50:19;29.40;99.90
52211;DHT22;38179;52.756;6.906;2022-08-03T14:52:45;29.40;99.90
52211;DHT22;38179;52.756;6.906;2022-08-03T14:55:10;29.50;99.90
52211;DHT22;38179;52.756;6.906;2022-08-03T14:57:36;29.50;99.90
52211;DHT22;38179;52.756;6.906;2022-08-03T15:00:03;29.60;99.90
52211;DHT22;38179;52.756;6.906;2022-08-03T15:02:29;29.50;99.90
52211;DHT22;38179;52.756;6.906;2022-08-03T15:04:55;29.40;99.90
52211;DHT22;38179;52.756;6.906;2022-08-03T15:07:21;29.40;99.90
52211;DHT22;38179;52.756;6.906;2022-08-03T15:09:47;29.30;99.90
52211;DHT22;38179;52.756;6.906;2022-08-03T15:12:13;29.30;99.90
52211;DHT22;38179;52.756;6.906;2022-08-03T15:14:39;29.40;99.90
52211;DHT22;38179;52.756;6.906;2022-08-03T15:17:05;29.50;99.90
52211;DHT22;38179;52.756;6.906;2022-08-03T15:19:31;29.50;99.90
52211;DHT22;38179;52.756;6.906;2022-08-03T15:21:57;29.60;99.90
52211;DHT22;38179;52.756;6.906;2022-08-03T15:24:23;29.50;99.90
52211;DHT22;38179;52.756;6.906;2022-08-03T15:26:50;29.70;99.90
52211;DHT22;38179;52.756;6.906;2022-08-03T15:29:17;29.70;99.90
52211;DHT22;38179;52.756;6.906;2022-08-03T15:31:43;29.70;99.90
52211;DHT22;38179;52.756;6.906;2022-08-03T15:34:08;29.60;99.90
52211;DHT22;38179;52.756;6.906;2022-08-03T15:36:36;29.40;99.90
52211;DHT22;38179;52.756;6.906;2022-08-03T15:39:03;29.50;99.90
52211;DHT22;38179;52.756;6.906;2022-08-03T15:41:29;29.50;99.90
52211;DHT22;38179;52.756;6.906;2022-08-03T15:43:55;29.60;99.90
52211;DHT22;38179;52.756;6.906;2022-08-03T15:46:21;29.70;99.90
52211;DHT22;38179;52.756;6.906;2022-08-03T15:48:47;29.70;99.90
52211;DHT22;38179;52.756;6.906;2022-08-03T15:51:13;29.80;99.90
52211;DHT22;38179;52.756;6.906;2022-08-03T15:53:39;29.80;99.90
52211;DHT22;38179;52.756;6.906;2022-08-03T15:56:06;29.70;99.90
52211;DHT22;38179;52.756;6.906;2022-08-03T15:58:33;29.60;99.90
52211;DHT22;38179;52.756;6.906;2022-08-03T16:01:00;29.50;99.90
52211;DHT22;38179;52.756;6.906;2022-08-03T16:03:27;29.40;99.90
52211;DHT22;38179;52.756;6.906;2022-08-03T16:06:02;29.40;99.90
52211;DHT22;38179;52.756;6.906;2022-08-03T16:08:28;29.40;99.90
52211;DHT22;38179;52.756;6.906;2022-08-03T16:10:54;29.30;99.90
52211;DHT22;38179;52.756;6.906;2022-08-03T16:13:20;29.40;99.90
52211;DHT22;38179;52.756;6.906;2022-08-03T16:15:47;29.50;99.90